createdAt,value
2019-04-30T00:01:07.520Z,18.87
2019-04-30T00:03:46.258Z,19.80
2019-04-30T00:06:19.506Z,17.90
2019-04-30T00:08:52.931Z,18.77
2019-04-30T00:11:25.509Z,19.50
2019-04-30T00:13:58.943Z,19.17
2019-04-30T00:16:36.329Z,19.43
2019-04-30T00:19:06.133Z,20.27
2019-04-30T00:21:38.757Z,20.13
2019-04-30T00:24:11.318Z,20.53
2019-04-30T00:26:45.403Z,20.83
2019-04-30T00:29:26.527Z,20.57
2019-04-30T00:31:59.248Z,23.50
2019-04-30T00:34:30.958Z,20.70
2019-04-30T00:37:01.553Z,20.33
2019-04-30T00:39:35.568Z,21.33
2019-04-30T00:42:08.704Z,20.60
2019-04-30T00:44:41.429Z,20.90
2019-04-30T00:47:15.313Z,22.37
2019-04-30T00:49:52.238Z,21.00
2019-04-30T00:52:22.437Z,20.90
2019-04-30T00:55:00.450Z,22.40
2019-04-30T00:57:37.377Z,21.23
2019-04-30T01:00:09.241Z,21.80
2019-04-30T01:02:48.154Z,22.70
2019-04-30T01:05:21.368Z,22.83
2019-04-30T01:07:55.017Z,22.50
2019-04-30T01:10:28.446Z,21.53
2019-04-30T01:13:08.275Z,21.50
2019-04-30T01:15:36.021Z,22.23
2019-04-30T01:18:10.558Z,22.20
2019-04-30T01:20:43.188Z,20.90
2019-04-30T01:23:16.978Z,21.60
2019-04-30T01:25:51.485Z,21.47
2019-04-30T01:28:24.468Z,21.63
2019-04-30T01:31:01.928Z,20.20
2019-04-30T01:33:35.650Z,21.37
2019-04-30T01:36:12.113Z,20.60
2019-04-30T01:38:44.811Z,18.50
2019-04-30T01:41:20.301Z,18.30
2019-04-30T01:43:51.656Z,18.43
2019-04-30T01:46:24.590Z,19.13
2019-04-30T01:48:58.513Z,18.17
2019-04-30T01:51:31.281Z,17.10
2019-04-30T01:54:03.876Z,17.17
2019-04-30T01:56:45.145Z,17.40
2019-04-30T01:59:39.356Z,18.20
2019-04-30T02:02:11.920Z,18.40
2019-04-30T02:04:44.401Z,18.00
2019-04-30T02:07:18.985Z,18.77
2019-04-30T02:09:51.822Z,18.20
2019-04-30T02:12:24.193Z,18.33
2019-04-30T02:14:56.749Z,18.13
2019-04-30T02:17:29.346Z,18.60
2019-04-30T02:20:01.985Z,19.33
2019-04-30T02:22:34.378Z,20.00
2019-04-30T02:25:07.348Z,19.10
2019-04-30T02:27:39.971Z,19.93
2019-04-30T02:30:12.470Z,19.00
2019-04-30T02:32:44.867Z,19.37
2019-04-30T02:35:28.818Z,19.10
2019-04-30T02:38:30.114Z,19.17
2019-04-30T02:41:03.793Z,19.53
2019-04-30T02:43:36.714Z,18.93
2019-04-30T02:46:10.429Z,20.70
2019-04-30T02:48:44.306Z,18.23
2019-04-30T02:51:20.096Z,19.30
2019-04-30T02:54:09.762Z,18.33
2019-04-30T02:56:44.361Z,18.47
2019-04-30T02:59:16.853Z,19.00
2019-04-30T03:01:50.249Z,18.27
2019-04-30T03:04:23.088Z,18.17
2019-04-30T03:06:55.797Z,18.37
2019-04-30T03:09:29.695Z,18.53
2019-04-30T03:14:30.068Z,20.63
2019-04-30T03:17:20.962Z,20.23
2019-04-30T03:20:27.759Z,18.07
2019-04-30T03:22:47.091Z,18.37
2019-04-30T03:25:19.696Z,16.93
2019-04-30T03:27:52.318Z,17.63
2019-04-30T03:30:25.182Z,16.33
2019-04-30T03:33:02.055Z,17.53
2019-04-30T03:35:32.761Z,18.00
2019-04-30T03:38:05.327Z,17.67
2019-04-30T03:40:40.495Z,18.27
2019-04-30T03:43:12.810Z,17.13
2019-04-30T03:45:45.518Z,17.67
2019-04-30T03:48:19.984Z,17.27
2019-04-30T03:50:56.644Z,17.37
2019-04-30T03:53:26.753Z,17.83
2019-04-30T03:56:01.413Z,17.43
2019-04-30T03:58:33.846Z,17.63
2019-04-30T04:01:15.806Z,18.17
2019-04-30T04:04:19.865Z,19.20
2019-04-30T04:07:00.117Z,17.17
2019-04-30T04:09:40.072Z,17.07
2019-04-30T04:12:21.854Z,17.50
2019-04-30T04:14:54.999Z,17.03
2019-04-30T04:17:31.524Z,17.57
2019-04-30T04:20:03.666Z,16.93
2019-04-30T04:22:36.260Z,17.57
2019-04-30T04:25:12.630Z,18.50
2019-04-30T04:27:42.999Z,18.50
2019-04-30T04:30:16.025Z,17.63
2019-04-30T04:32:50.147Z,17.00
2019-04-30T04:35:22.837Z,16.87
2019-04-30T04:37:55.355Z,17.60
2019-04-30T04:40:30.173Z,17.47
2019-04-30T04:43:01.850Z,17.00
2019-04-30T04:45:34.575Z,17.10
2019-04-30T04:48:09.487Z,16.93
2019-04-30T04:50:41.701Z,15.73
2019-04-30T04:53:15.134Z,16.13
2019-04-30T04:55:49.674Z,16.57
2019-04-30T04:58:21.903Z,16.10
2019-04-30T05:00:55.511Z,15.47
2019-04-30T05:03:36.005Z,15.80
2019-04-30T05:06:11.363Z,16.37
2019-04-30T05:08:43.612Z,15.83
2019-04-30T05:11:16.169Z,14.87
2019-04-30T05:13:49.115Z,14.87
2019-04-30T05:16:22.836Z,14.17
2019-04-30T05:18:55.267Z,14.93
2019-04-30T05:21:41.152Z,15.07
2019-04-30T05:24:03.105Z,14.50
2019-04-30T05:26:38.592Z,14.97
2019-04-30T05:29:11.127Z,13.73
2019-04-30T05:31:43.901Z,14.43
2019-04-30T05:34:18.904Z,13.83
2019-04-30T05:36:51.216Z,13.97
2019-04-30T05:39:23.651Z,14.67
2019-04-30T05:41:56.139Z,13.73
2019-04-30T05:44:29.820Z,13.03
2019-04-30T05:47:03.432Z,13.30
2019-04-30T05:49:38.947Z,13.03
2019-04-30T05:52:11.736Z,13.40
2019-04-30T05:54:44.137Z,13.83
2019-04-30T05:59:43.931Z,12.70
2019-04-30T06:02:19.095Z,12.53
2019-04-30T06:04:51.142Z,12.60
2019-04-30T06:07:23.705Z,11.97
2019-04-30T06:10:09.277Z,12.00
2019-04-30T06:12:55.494Z,12.77
2019-04-30T06:15:54.496Z,12.93
2019-04-30T06:18:28.653Z,12.63
2019-04-30T06:21:01.337Z,13.10
2019-04-30T06:23:34.338Z,12.93
2019-04-30T06:26:10.723Z,13.00
2019-04-30T06:28:41.737Z,13.13
2019-04-30T06:31:14.213Z,11.70
2019-04-30T06:33:48.632Z,13.07
2019-04-30T06:36:21.476Z,11.97
2019-04-30T06:38:53.926Z,11.83
2019-04-30T06:41:26.778Z,11.57
2019-04-30T06:43:59.823Z,12.63
2019-04-30T06:46:32.797Z,11.77
2019-04-30T06:49:05.669Z,11.70
2019-04-30T06:51:38.936Z,11.80
2019-04-30T06:54:12.624Z,12.10
2019-04-30T06:56:45.072Z,11.63
2019-04-30T06:59:17.827Z,12.13
2019-04-30T07:01:50.278Z,11.00
2019-04-30T07:04:23.196Z,11.00
2019-04-30T07:06:58.886Z,11.40
2019-04-30T07:09:53.170Z,11.60
2019-04-30T07:12:27.815Z,11.60
2019-04-30T07:14:59.353Z,10.97
2019-04-30T07:17:31.900Z,10.70
2019-04-30T07:20:04.961Z,10.50
2019-04-30T07:22:41.063Z,11.17
2019-04-30T07:25:11.829Z,10.63
2019-04-30T07:27:44.490Z,10.97
2019-04-30T07:30:19.100Z,10.77
2019-04-30T07:32:51.547Z,10.87
2019-04-30T07:35:24.431Z,11.43
2019-04-30T07:40:31.560Z,10.33
2019-04-30T07:43:04.248Z,10.80
2019-04-30T07:45:36.614Z,9.97
2019-04-30T07:48:09.496Z,10.40
2019-04-30T07:50:42.963Z,10.60
2019-04-30T07:53:15.780Z,10.50
2019-04-30T07:55:49.452Z,10.17
2019-04-30T07:58:23.042Z,9.57
2019-04-30T08:00:56.465Z,9.67
2019-04-30T08:03:52.212Z,9.87
2019-04-30T08:06:25.174Z,9.30
2019-04-30T08:09:00.676Z,9.23
2019-04-30T08:09:34.990Z,10.63
2019-04-30T08:11:34.398Z,9.70
2019-04-30T08:14:07.032Z,9.43
2019-04-30T08:16:39.984Z,10.13
2019-04-30T08:19:12.855Z,9.10
2019-04-30T08:21:45.317Z,9.57
2019-04-30T08:24:19.357Z,9.70
2019-04-30T08:26:51.960Z,9.07
2019-04-30T08:29:24.428Z,9.83
2019-04-30T08:31:59.203Z,9.67
2019-04-30T08:34:32.375Z,9.43
2019-04-30T08:37:16.677Z,9.13
2019-04-30T08:39:39.710Z,9.03
2019-04-30T08:42:12.535Z,8.87
2019-04-30T08:44:46.017Z,8.97
2019-04-30T08:47:21.176Z,9.60
2019-04-30T08:49:52.677Z,9.23
2019-04-30T08:52:25.783Z,8.80
2019-04-30T08:55:12.996Z,9.60
2019-04-30T08:57:34.067Z,8.57
2019-04-30T09:00:09.228Z,9.33
2019-04-30T09:02:43.395Z,8.97
2019-04-30T09:05:22.258Z,9.03
2019-04-30T09:07:55.748Z,9.63
2019-04-30T09:10:29.400Z,9.57
2019-04-30T09:13:03.839Z,9.33
2019-04-30T09:15:36.500Z,8.60
2019-04-30T09:18:12.371Z,9.50
2019-04-30T09:20:43.774Z,9.23
2019-04-30T09:23:18.586Z,9.63
2019-04-30T09:25:50.815Z,8.30
2019-04-30T09:28:24.632Z,8.90
2019-04-30T09:30:58.690Z,9.07
2019-04-30T09:33:31.478Z,9.67
2019-04-30T09:36:04.105Z,9.33
2019-04-30T09:38:36.641Z,9.23
2019-04-30T09:41:09.406Z,8.53
2019-04-30T09:43:41.810Z,8.87
2019-04-30T09:46:24.512Z,8.97
2019-04-30T09:48:50.840Z,9.30
2019-04-30T09:51:24.801Z,8.40
2019-04-30T09:54:00.636Z,8.37
2019-04-30T09:56:32.020Z,8.80
2019-04-30T09:59:04.824Z,9.37
2019-04-30T10:01:37.272Z,8.73
2019-04-30T10:04:10.830Z,9.43
2019-04-30T10:06:43.764Z,9.27
2019-04-30T10:09:19.285Z,9.17
2019-04-30T10:12:09.540Z,9.33
2019-04-30T10:14:41.996Z,8.70
2019-04-30T10:17:22.473Z,9.03
2019-04-30T10:19:55.425Z,8.33
2019-04-30T10:22:28.070Z,8.70
2019-04-30T10:25:00.769Z,9.20
2019-04-30T10:27:33.471Z,9.13
2019-04-30T10:30:09.210Z,8.03
2019-04-30T10:32:41.776Z,8.27
2019-04-30T10:35:14.225Z,8.90
2019-04-30T10:37:48.556Z,8.10
2019-04-30T10:40:21.054Z,7.80
2019-04-30T10:42:55.231Z,7.37
2019-04-30T10:45:28.819Z,7.33
2019-04-30T10:48:01.412Z,7.63
2019-04-30T10:50:34.124Z,7.10
2019-04-30T10:53:06.680Z,7.67
2019-04-30T10:55:39.577Z,8.00
2019-04-30T10:58:12.072Z,7.93
2019-04-30T11:00:49.713Z,7.70
2019-04-30T11:03:23.167Z,7.50
2019-04-30T11:05:55.947Z,7.43
2019-04-30T11:08:28.955Z,7.60
2019-04-30T11:11:01.722Z,7.17
2019-04-30T11:13:34.458Z,7.87
2019-04-30T11:16:14.783Z,7.13
2019-04-30T11:18:41.561Z,6.77
2019-04-30T11:21:14.556Z,7.47
2019-04-30T11:23:49.484Z,6.90
2019-04-30T11:26:22.221Z,7.33
2019-04-30T11:28:55.376Z,6.50
2019-04-30T11:31:36.926Z,6.77
2019-04-30T11:34:10.662Z,6.90
2019-04-30T11:36:48.433Z,6.90
2019-04-30T11:39:21.726Z,6.13
2019-04-30T11:41:56.658Z,6.97
2019-04-30T11:44:31.470Z,7.00
2019-04-30T11:47:53.056Z,6.63
2019-04-30T11:50:20.451Z,7.17
2019-04-30T11:53:07.156Z,6.17
2019-04-30T11:55:29.316Z,7.00
2019-04-30T11:58:02.123Z,6.37
2019-04-30T12:00:36.913Z,6.50
2019-04-30T12:03:11.591Z,6.87
2019-04-30T12:05:44.416Z,6.53
2019-04-30T12:08:30.026Z,6.53
2019-04-30T12:11:24.783Z,6.53
2019-04-30T12:13:57.465Z,6.97
2019-04-30T12:16:30.077Z,5.73
2019-04-30T12:19:02.961Z,5.30
2019-04-30T12:21:56.452Z,6.37
2019-04-30T12:24:32.426Z,5.57
2019-04-30T12:27:05.447Z,5.83
2019-04-30T12:29:39.764Z,6.13
2019-04-30T12:32:12.515Z,6.47
2019-04-30T12:34:45.149Z,6.10
2019-04-30T12:37:19.104Z,5.73
2019-04-30T12:39:51.873Z,6.03
2019-04-30T12:42:24.862Z,5.60
2019-04-30T12:44:59.417Z,5.60
2019-04-30T12:47:33.942Z,5.00
2019-04-30T12:50:15.197Z,4.70
2019-04-30T12:53:04.281Z,5.77
2019-04-30T12:56:01.512Z,5.60
2019-04-30T12:58:35.094Z,4.90
2019-04-30T13:01:09.002Z,4.73
2019-04-30T13:03:42.478Z,5.33
2019-04-30T13:06:15.152Z,5.00
2019-04-30T13:08:51.780Z,4.73
2019-04-30T13:11:25.714Z,5.10
2019-04-30T13:14:00.734Z,4.90
2019-04-30T13:16:34.269Z,4.80
2019-04-30T13:19:09.181Z,4.60
2019-04-30T13:21:41.836Z,5.50
2019-04-30T13:24:15.012Z,4.50
2019-04-30T13:26:49.479Z,4.70
2019-04-30T13:29:29.075Z,4.30
2019-04-30T13:32:02.061Z,4.27
2019-04-30T13:34:51.590Z,4.90
2019-04-30T13:37:25.377Z,4.50
2019-04-30T13:40:08.801Z,5.17
2019-04-30T13:42:44.514Z,4.77
2019-04-30T13:45:18.662Z,4.50
2019-04-30T13:47:53.177Z,4.60
2019-04-30T13:50:26.355Z,4.40
2019-04-30T13:52:58.935Z,4.80
2019-04-30T13:55:42.866Z,4.90
2019-04-30T13:58:05.589Z,5.10
2019-04-30T14:00:39.782Z,4.50
2019-04-30T14:03:22.660Z,4.37
2019-04-30T14:05:55.571Z,4.57
2019-04-30T14:08:33.381Z,4.43
2019-04-30T14:11:06.253Z,4.10
2019-04-30T14:13:44.760Z,4.30
2019-04-30T14:16:21.162Z,4.10
2019-04-30T14:18:53.865Z,3.67
2019-04-30T14:21:34.756Z,3.77
2019-04-30T14:24:04.259Z,3.80
2019-04-30T14:26:39.133Z,3.90
2019-04-30T14:29:12.488Z,4.00
2019-04-30T14:31:45.463Z,3.87
2019-04-30T14:34:18.568Z,3.90
2019-04-30T14:36:54.885Z,3.60
2019-04-30T14:39:30.086Z,3.80
2019-04-30T14:42:03.971Z,3.80
2019-04-30T14:44:40.421Z,3.73
2019-04-30T14:47:21.145Z,3.73
2019-04-30T14:50:14.804Z,4.00
2019-04-30T14:53:05.366Z,3.73
2019-04-30T14:56:08.549Z,3.87
2019-04-30T14:58:43.250Z,3.67
2019-04-30T15:01:31.685Z,3.77
2019-04-30T15:04:05.777Z,4.00
2019-04-30T15:06:40.131Z,3.90
2019-04-30T15:09:13.920Z,3.90
2019-04-30T15:11:48.676Z,3.97
2019-04-30T15:14:27.111Z,3.90
2019-04-30T15:17:00.010Z,3.90
2019-04-30T15:19:32.866Z,4.13
2019-04-30T15:22:08.632Z,4.33
2019-04-30T15:25:03.142Z,3.97
2019-04-30T15:27:45.057Z,4.17
2019-04-30T15:30:21.744Z,4.40
2019-04-30T15:33:01.725Z,4.33
2019-04-30T15:35:34.948Z,4.23
2019-04-30T15:38:09.460Z,4.30
2019-04-30T15:40:42.351Z,4.00
2019-04-30T15:43:15.660Z,4.67
2019-04-30T15:45:52.680Z,4.10
2019-04-30T15:48:26.380Z,4.30
2019-04-30T15:51:00.493Z,4.50
2019-04-30T15:53:33.479Z,4.20
2019-04-30T15:56:05.922Z,4.47
2019-04-30T15:58:40.193Z,4.50
2019-04-30T16:01:13.402Z,4.50
2019-04-30T16:03:48.423Z,4.67
2019-04-30T16:06:21.148Z,5.00
2019-04-30T16:08:58.114Z,4.70
2019-04-30T16:11:40.524Z,4.87
2019-04-30T16:14:30.236Z,4.73
2019-04-30T16:17:08.543Z,5.20
2019-04-30T16:19:41.084Z,4.80
2019-04-30T16:22:13.692Z,4.87
2019-04-30T16:24:46.679Z,5.03
2019-04-30T16:27:19.361Z,4.77
2019-04-30T16:29:51.976Z,4.60
2019-04-30T16:32:24.606Z,5.30
2019-04-30T16:34:57.010Z,5.00
2019-04-30T16:37:30.028Z,5.03
2019-04-30T16:40:03.655Z,4.80
2019-04-30T16:42:39.002Z,5.23
2019-04-30T16:45:14.249Z,5.60
2019-04-30T16:47:47.410Z,5.73
2019-04-30T16:50:20.434Z,5.50
2019-04-30T16:52:52.876Z,5.53
2019-04-30T16:55:25.414Z,5.60
2019-04-30T16:57:58.733Z,5.90
2019-04-30T17:00:31.242Z,5.73
2019-04-30T17:03:18.961Z,5.60
2019-04-30T17:06:00.643Z,5.80
2019-04-30T17:08:41.145Z,5.43
2019-04-30T17:11:39.104Z,5.73
2019-04-30T17:14:14.962Z,6.20
2019-04-30T17:16:49.425Z,5.60
2019-04-30T17:19:22.543Z,6.05
2019-04-30T17:21:55.398Z,5.80
2019-04-30T17:24:30.114Z,6.33
2019-04-30T17:27:02.145Z,5.77
2019-04-30T17:29:37.026Z,6.03
2019-04-30T17:32:10.639Z,6.20
2019-04-30T17:34:48.831Z,6.07
2019-04-30T17:37:21.144Z,6.30
2019-04-30T17:39:53.957Z,6.80
2019-04-30T17:42:26.497Z,6.03
2019-04-30T17:45:01.660Z,6.20
2019-04-30T17:47:33.321Z,6.57
2019-04-30T17:50:08.930Z,6.37
2019-04-30T17:52:41.504Z,6.53
2019-04-30T17:55:15.794Z,6.57
2019-04-30T17:57:48.720Z,7.00
2019-04-30T18:00:23.356Z,6.73
2019-04-30T18:02:59.703Z,6.50
2019-04-30T18:05:32.604Z,6.73
2019-04-30T18:08:06.101Z,7.03
2019-04-30T18:10:41.964Z,6.60
2019-04-30T18:13:16.481Z,6.37
2019-04-30T18:15:49.982Z,7.00
2019-04-30T18:18:37.155Z,6.90
2019-04-30T18:21:29.779Z,6.83
2019-04-30T18:24:19.958Z,7.23
2019-04-30T18:27:00.077Z,7.37
2019-04-30T18:29:32.526Z,7.40
2019-04-30T18:32:04.892Z,7.50
2019-04-30T18:34:39.112Z,6.87
2019-04-30T18:37:12.044Z,7.23
2019-04-30T18:39:44.574Z,7.50
2019-04-30T18:42:19.301Z,7.63
2019-04-30T18:44:51.597Z,7.60
2019-04-30T18:47:24.786Z,7.80
2019-04-30T18:49:59.344Z,7.10
2019-04-30T18:52:31.381Z,7.87
2019-04-30T18:55:04.313Z,7.80
2019-04-30T18:57:42.474Z,7.20
2019-04-30T19:00:19.851Z,7.40
2019-04-30T19:02:53.884Z,7.10
2019-04-30T19:05:30.961Z,7.57
2019-04-30T19:08:09.831Z,7.70
2019-04-30T19:11:00.413Z,7.77
2019-04-30T19:14:11.202Z,7.80
2019-04-30T19:17:02.351Z,7.77
2019-04-30T19:19:53.365Z,9.90
2019-04-30T19:22:25.984Z,9.40
2019-04-30T19:25:01.868Z,9.37
2019-04-30T19:27:32.946Z,9.20
2019-04-30T19:30:09.145Z,9.60
2019-04-30T19:32:41.267Z,9.20
2019-04-30T19:35:15.490Z,12.40
2019-04-30T19:37:48.709Z,11.57
2019-04-30T19:40:21.473Z,11.63
2019-04-30T19:42:53.848Z,13.00
2019-04-30T19:45:26.656Z,12.63
2019-04-30T19:47:59.181Z,10.07
2019-04-30T19:50:31.869Z,10.37
2019-04-30T19:53:04.303Z,10.27
2019-04-30T19:55:36.871Z,9.90
2019-04-30T19:58:10.794Z,9.70
2019-04-30T20:00:43.721Z,10.13
2019-04-30T20:03:16.154Z,13.67
2019-04-30T20:05:50.430Z,11.57
2019-04-30T20:08:23.401Z,9.50
2019-04-30T20:10:55.885Z,9.10
2019-04-30T20:13:36.677Z,8.70
2019-04-30T20:16:04.011Z,9.20
2019-04-30T20:18:36.378Z,8.63
2019-04-30T20:21:13.802Z,8.67
2019-04-30T20:23:46.366Z,8.80
2019-04-30T20:26:18.742Z,9.30
2019-04-30T20:28:51.244Z,9.20
2019-04-30T20:31:23.575Z,9.43
2019-04-30T20:33:56.302Z,9.33
2019-04-30T20:36:28.917Z,9.03
2019-04-30T20:39:26.142Z,8.50
2019-04-30T20:41:58.930Z,9.53
2019-04-30T20:44:31.848Z,9.53
2019-04-30T20:47:04.369Z,9.43
2019-04-30T20:49:38.986Z,10.27
2019-04-30T20:52:10.878Z,9.97
2019-04-30T20:54:43.308Z,10.20
2019-04-30T20:57:16.847Z,10.73
2019-04-30T20:59:49.553Z,10.43
2019-04-30T21:02:22.622Z,10.80
2019-04-30T21:04:54.964Z,10.30
2019-04-30T21:07:27.288Z,10.47
2019-04-30T21:10:00.425Z,10.30
2019-04-30T21:12:32.795Z,10.87
2019-04-30T21:15:05.342Z,11.10
2019-04-30T21:17:37.738Z,11.03
2019-04-30T21:20:10.292Z,11.17
2019-04-30T21:22:43.057Z,11.33
2019-04-30T21:25:15.592Z,11.50
2019-04-30T21:27:49.990Z,11.93
2019-04-30T21:30:22.240Z,11.17
2019-04-30T21:33:13.212Z,11.57
2019-04-30T21:35:52.165Z,11.10
2019-04-30T21:38:24.670Z,10.87
2019-04-30T21:40:58.750Z,11.83
2019-04-30T21:43:30.995Z,11.23
2019-04-30T21:46:03.662Z,11.60
2019-04-30T21:48:36.268Z,11.03
2019-04-30T21:51:09.401Z,11.47
2019-04-30T21:53:42.098Z,10.93
2019-04-30T21:56:14.497Z,12.03
2019-04-30T21:58:47.086Z,12.03
2019-04-30T22:01:22.400Z,12.20
2019-04-30T22:03:56.701Z,11.73
2019-04-30T22:06:29.748Z,11.83
2019-04-30T22:09:02.365Z,11.37
2019-04-30T22:11:36.640Z,11.63
2019-04-30T22:14:09.390Z,11.67
2019-04-30T22:16:41.784Z,11.67
2019-04-30T22:19:14.348Z,11.50
2019-04-30T22:21:46.915Z,11.47
2019-04-30T22:24:19.401Z,11.93
2019-04-30T22:26:53.821Z,11.53
2019-04-30T22:29:37.056Z,12.20
2019-04-30T22:32:01.307Z,11.50
2019-04-30T22:34:34.053Z,12.10
2019-04-30T22:37:08.559Z,11.53
2019-04-30T22:39:46.037Z,12.10
2019-04-30T22:42:39.735Z,11.33
2019-04-30T22:45:23.794Z,11.10
2019-04-30T22:47:56.429Z,11.43
2019-04-30T22:50:29.334Z,11.03
2019-04-30T22:53:01.858Z,10.67
2019-04-30T22:55:34.549Z,10.40
2019-04-30T22:58:06.918Z,10.23
2019-04-30T23:00:42.787Z,10.90
2019-04-30T23:03:20.799Z,10.70
2019-04-30T23:05:53.680Z,11.87
2019-04-30T23:08:27.486Z,12.30
2019-04-30T23:11:00.082Z,11.93
2019-04-30T23:13:32.793Z,12.10
2019-04-30T23:16:06.696Z,11.90
2019-04-30T23:18:39.284Z,12.07
2019-04-30T23:21:11.665Z,11.80
2019-04-30T23:23:44.244Z,11.80
2019-04-30T23:26:16.747Z,11.40
2019-04-30T23:28:49.570Z,11.20
2019-04-30T23:31:22.227Z,11.80
2019-04-30T23:33:54.528Z,11.33
2019-04-30T23:36:27.168Z,11.07
2019-04-30T23:38:59.501Z,11.07
2019-04-30T23:41:32.248Z,11.57
2019-04-30T23:44:04.805Z,11.60
2019-04-30T23:46:37.233Z,11.27
2019-04-30T23:49:09.804Z,11.33
2019-04-30T23:51:42.423Z,11.23
2019-04-30T23:54:14.740Z,11.23
2019-04-30T23:56:47.069Z,10.90
2019-04-30T23:59:19.733Z,10.73
